الصفحة الرئيسية
METAR-TAF:

METAR-TAF

مطار :

تاكاماتسو, اليابان

دائرة عرض: 34-13N, خط طول: 134-01E, ارتفاع: 185 متر

مراقبة الطقس الحالي

تاريخ ووقت الإصدار 1ساعة و 2 دقيقة قبل الساعة 04:00UTC
ريح 6 عقدة من الشرق/الشمال الشرقي, الاتجاه يتراوح بين الشمال/الشمال الشرقي و الشرق
درجة الحرارة 25°درجة مئوية
الرطوبة 79%
ضغط 1009 hPa
الرؤية 10 كم أو أكثر
غيوم قليلة على ارتفاع 3000 قدم
غيوم متفرقة على ارتفاع 17000 قدم
غيوم مفككة

METAR: RJOT 170400Z 06006KT 020V080 9999 FEW030 SCT170 BKN/// 25/21 Q1009

زمن: 14:02 (05:02 UTC)

توقعات

تاريخ ووقت الإصدار 5ساعات و 56 دقيقة قبل الساعة 23:06UTC
التوقعات صالحة من17 الساعة 00 UTC إلى 18 الساعة 06 UTC
ريح 5 عقدة من الشمال الشرقي
الرؤية 10 كم أو أكثر
غيوم قليلة على ارتفاع 2500 قدم
مؤقت
من 17 الساعة 18 UTC إلى 18 الساعة 00 UTC
الرؤية: 3000 متر
غيوم قليلة على ارتفاع 100 قدم
غيوم متفرقة على ارتفاع 300 قدم
غيوم مفككة على ارتفاع 500 قدم
زخات من المطر, غشاء
أصبح
من 17 الساعة 21 UTC إلى 18 الساعة 00 UTC
ريح 7 عقدة من الغرب

TAF: RJOT 162306Z 1700/1806 04005KT 9999 FEW025 TEMPO 1718/1800 3000 SHRA BR FEW001 SCT003 BKN005 BECMG 1721/1800 28007KT

أرصاد الطقس والتوقعات من أكثر من 4000 مطار (تقارير الطقس للمطار METAR والتنبؤ بالطقس بالمطارTAF).

المحطات المتاحة هي النقط الصفراء والحمراء على الخريطة.

حرك المؤشر فوق النقطة لمعرفة اسم المحطة.

ثم انقر لمعرفة أرصاد وتوقعات الطقس.

لتغيير الخارطة: اضغط على الأزرار الخضراء مع رمز الصليب الأسود للتكبير. على الزر الأخضر مع شرطة للتصغير، أو على الأسهم الخضراء للخرائط المجاورة.


METAR-TAF: